0ksnesvaering — LMCE — position and weather

sailwx.info

Track history (hours):
 
Tides and Currents Weather Stations Pressure Air Temp Water Temp Dewpoint Dewpoint Depression Visibility Wind Speed Wind Dir Waves Ship Positions

0ksnesvaering

Last reported at 2018-Feb-15 18:34 UTC. Time now 2018-Feb-18 22:19 UTC.
Position N 67°40' E 014°19'.

Length 28 m; draft 5.3 m.

Type: Fishing. MMSI: 257580600.

Date/timePositionNaut miles runAvg speedWind from/ knotsBaromVisibWave heightAir tempDewpointWater temp
2018-Feb-15 18:34N 67°40' E 014°19'1 9.4
2018-Feb-15 18:26N 67°39' E 014°19'4 9.5
2018-Feb-15 18:00N 67°35' E 014°20'5 9.3
2018-Feb-15 17:29N 67°30' E 014°23'5 9.2
2018-Feb-15 17:00N 67°26' E 014°26'4 9.1
2018-Feb-15 16:30N 67°21' E 014°25'4 8.3
2018-Feb-15 16:01N 67°17' E 014°22'1 1.0
2018-Feb-15 15:30N 67°17' E 014°23'0 0.0
2018-Feb-15 15:01N 67°17' E 014°23'0 0.0
2018-Feb-15 14:30N 67°17' E 014°23'0 0.0
2018-Feb-15 14:01N 67°17' E 014°23'0 0.0
2018-Feb-15 13:31N 67°17' E 014°23'0 0.0
2018-Feb-15 13:00N 67°17' E 014°23'0 0.0
2018-Feb-15 12:30N 67°17' E 014°23'0 0.0
2018-Feb-15 12:01N 67°17' E 014°23'0 0.0
2018-Feb-15 11:31N 67°17' E 014°23'0 0.0
2018-Feb-15 11:01N 67°17' E 014°23'0 0.0
2018-Feb-15 10:31N 67°17' E 014°23'0 0.0
2018-Feb-15 10:00N 67°17' E 014°23'0 0.0
2018-Feb-15 09:30N 67°17' E 014°23'0 0.0
2018-Feb-15 09:01N 67°17' E 014°23'0 0.0
2018-Feb-15 08:31N 67°17' E 014°23'0 0.2
2018-Feb-15 08:01N 67°17' E 014°23'0 0.0
2018-Feb-15 07:31N 67°17' E 014°23'0 0.0
2018-Feb-15 07:01N 67°17' E 014°23'0 0.2
2018-Feb-15 06:31N 67°17' E 014°23'0 0.0
2018-Feb-15 06:01N 67°17' E 014°23'0 0.0
2018-Feb-15 05:30N 67°17' E 014°23'0 0.0
2018-Feb-15 05:01N 67°17' E 014°23'0 0.0
2018-Feb-15 04:31N 67°17' E 014°23'0 0.0
2018-Feb-15 04:00N 67°17' E 014°23'0 0.0
2018-Feb-15 03:31N 67°17' E 014°23'0 0.0
2018-Feb-15 03:01N 67°17' E 014°23'0 0.0
2018-Feb-15 02:31N 67°17' E 014°23'0 0.0
2018-Feb-15 02:00N 67°17' E 014°23'0 0.0
2018-Feb-15 01:30N 67°17' E 014°23'0 0.0
2018-Feb-15 01:00N 67°17' E 014°23'0 0.0
2018-Feb-15 00:31N 67°17' E 014°23'0 0.0
2018-Feb-15 00:01N 67°17' E 014°23'0 0.0
2018-Feb-14 23:31N 67°17' E 014°23'0 0.0
2018-Feb-14 23:00N 67°17' E 014°23'0 0.0
2018-Feb-14 22:31N 67°17' E 014°23'0 0.0
2018-Feb-14 22:00N 67°17' E 014°23'0 0.0
2018-Feb-14 21:31N 67°17' E 014°23'0 0.0
2018-Feb-14 21:01N 67°17' E 014°23'0 0.0
2018-Feb-14 20:31N 67°17' E 014°23'0 0.0
2018-Feb-14 20:01N 67°17' E 014°23'0 0.0
2018-Feb-14 19:31N 67°17' E 014°23'0 0.0
2018-Feb-14 19:00N 67°17' E 014°23'0 0.0
2018-Feb-14 18:30N 67°17' E 014°23'0 0.0
2018-Feb-14 18:01N 67°17' E 014°23'0 0.0
2018-Feb-14 17:30N 67°17' E 014°23'4 7.6
2018-Feb-14 17:01N 67°15' E 014°16'5 9.5
2018-Feb-14 16:30N 67°12' E 014°07'5 9.7
2018-Feb-14 16:00N 67°07' E 014°00'5 9.7
2018-Feb-14 15:30N 67°04' E 013°53'6 9.5
2018-Feb-14 14:53N 67°00' E 013°40'4 9.2
2018-Feb-14 14:25N 66°58' E 013°32'2 2.3
2018-Feb-14 13:41N 66°57' E 013°29'0 1.9
2018-Feb-14 13:29N 66°56' E 013°28'1 2.0
2018-Feb-14 12:55N 66°56' E 013°26'0 0.0
2018-Feb-14 12:30N 66°56' E 013°26'0 0.0
2018-Feb-14 12:00N 66°56' E 013°26'0 0.1
2018-Feb-14 10:00N 66°56' E 013°26'0 0.0
2018-Feb-14 09:18N 66°56' E 013°26'0 1.3
2018-Feb-14 09:01N 66°56' E 013°27'1 0.1
2018-Feb-13 18:37N 66°57' E 013°28'24 1.4
2018-Feb-13 01:12N 66°38' E 012°53'2 9.4
2018-Feb-13 01:00N 66°36' E 012°53'7 9.5
2018-Feb-13 00:18N 66°29' E 012°59'4 9.5
2018-Feb-12 23:54N 66°26' E 012°59'4 9.3
2018-Feb-12 23:29N 66°22' E 012°57'25 9.1
2018-Feb-12 20:43N 65°59' E 012°30'49 8.9
2018-Feb-12 15:12N 65°13' E 011°53'3 9.1
2018-Feb-12 14:55N 65°10' E 011°51'4 9.1
2018-Feb-12 14:28N 65°06' E 011°48'4 9.0
2018-Feb-12 14:00N 65°03' E 011°43'4 8.6
2018-Feb-12 13:30N 64°60' E 011°36'4 8.7
2018-Feb-12 13:01N 64°57' E 011°29'5 9.0
2018-Feb-12 12:30N 64°54' E 011°21'4 8.4
2018-Feb-12 12:00N 64°51' E 011°13'7 0.2
2018-Feb-11 00:19N 64°45' E 011°06'3 8.1
2018-Feb-11 00:00N 64°47' E 011°05'4 8.8
2018-Feb-10 23:30N 64°50' E 011°12'4 8.7
2018-Feb-10 23:01N 64°53' E 011°19'4 8.8
2018-Feb-10 22:30N 64°56' E 011°27'4 8.9
2018-Feb-10 22:00N 64°59' E 011°35'5 8.6
2018-Feb-10 21:28N 65°02' E 011°43'4 8.8
2018-Feb-10 20:58N 65°06' E 011°48'7 8.8
2018-Feb-10 20:12N 65°12' E 011°53'61 8.6
2018-Feb-10 13:11N 66°10' E 012°39'2 8.7
2018-Feb-10 13:00N 66°12' E 012°38'4 8.0
2018-Feb-10 12:31N 66°15' E 012°32'4 8.7
2018-Feb-10 12:01N 66°16' E 012°22'4 8.3
2018-Feb-10 11:30N 66°18' E 012°12'4 7.5
2018-Feb-10 11:00N 66°21' E 012°08'4 7.6
2018-Feb-10 10:31N 66°25' E 012°07'3 6.3
2018-Feb-10 10:01N 66°28' E 012°06'2 3.7
2018-Feb-10 09:31N 66°30' E 012°06'0 0.1
2018-Feb-10 09:01N 66°30' E 012°06'0 0.0
2018-Feb-10 08:31N 66°30' E 012°06'0 0.0
2018-Feb-10 08:00N 66°30' E 012°06'0 0.0
2018-Feb-10 07:31N 66°30' E 012°06'0 0.0
2018-Feb-10 07:01N 66°30' E 012°06'0 0.0
2018-Feb-10 06:31N 66°30' E 012°06'0 0.0
2018-Feb-10 06:01N 66°30' E 012°06'0 0.0
2018-Feb-10 05:30N 66°30' E 012°06'0 0.0
2018-Feb-10 05:01N 66°30' E 012°06'0 0.0
2018-Feb-10 04:31N 66°30' E 012°06'0 0.0
2018-Feb-10 04:01N 66°30' E 012°06'0 0.0
2018-Feb-10 03:31N 66°30' E 012°06'0 0.0
2018-Feb-10 03:01N 66°30' E 012°06'0 0.0
2018-Feb-10 02:30N 66°30' E 012°06'0 0.0
2018-Feb-10 02:01N 66°30' E 012°06'0 0.0
2018-Feb-10 01:31N 66°30' E 012°06'0 0.0
2018-Feb-10 01:00N 66°30' E 012°06'0 0.0
2018-Feb-10 00:30N 66°30' E 012°06'0 0.0
2018-Feb-10 00:01N 66°30' E 012°06'0 0.0
2018-Feb-09 23:31N 66°30' E 012°06'0 0.0
2018-Feb-09 23:00N 66°30' E 012°06'0 0.0
2018-Feb-09 22:46N 66°30' E 012°06'0 0.0
2018-Feb-09 22:31N 66°30' E 012°06'0 0.0
2018-Feb-09 22:01N 66°30' E 012°06'0 0.0
2018-Feb-09 21:31N 66°30' E 012°06'0 0.0
2018-Feb-09 21:01N 66°30' E 012°06'0 0.0
2018-Feb-09 19:31N 66°30' E 012°06'0 0.0
2018-Feb-09 19:01N 66°30' E 012°06'0 0.0
2018-Feb-09 18:31N 66°30' E 012°06'0 0.0
2018-Feb-09 18:01N 66°30' E 012°06'0 0.0
2018-Feb-09 17:31N 66°30' E 012°06'0 0.0
2018-Feb-09 16:01N 66°30' E 012°06'0 0.0
2018-Feb-09 15:01N 66°30' E 012°06'0 0.0
2018-Feb-09 14:31N 66°30' E 012°06'0 0.0
2018-Feb-09 14:01N 66°30' E 012°06'0 0.1
2018-Feb-09 13:30N 66°30' E 012°06'0 0.0
2018-Feb-09 13:01N 66°30' E 012°06'0 0.0
2018-Feb-09 12:01N 66°30' E 012°06'0 0.0
2018-Feb-09 11:31N 66°30' E 012°06'0 0.0
2018-Feb-09 11:01N 66°30' E 012°06'0 0.0
2018-Feb-09 09:31N 66°30' E 012°06'0 0.0
2018-Feb-09 08:31N 66°30' E 012°06'0 0.0
2018-Feb-09 08:01N 66°30' E 012°06'0 0.0
2018-Feb-09 05:30N 66°30' E 012°06'0 0.0
2018-Feb-09 04:31N 66°30' E 012°06'0 0.0
2018-Feb-09 03:31N 66°30' E 012°06'0 0.0
2018-Feb-09 00:00N 66°30' E 012°06'13 0.7
2018-Feb-08 06:30N 66°17' E 012°06'  
Track history (hours):
 
Tides and Currents Weather Stations Pressure Air Temp Water Temp Dewpoint Dewpoint Depression Visibility Wind Speed Wind Dir Waves Ship Positions

0ksnesvaering

Last reported at 2018-Feb-15 18:34 UTC. Time now 2018-Feb-18 22:19 UTC.
Position N 67°40' E 014°19'.

Length 28 m; draft 5.3 m.

Type: Fishing. MMSI: 257580600.

Date/timePositionNaut miles runAvg speedWind from/ knotsBaromVisibWave heightAir tempDewpointWater temp
2018-Feb-15 18:34N 67°40' E 014°19'1 9.4
2018-Feb-15 18:26N 67°39' E 014°19'4 9.5
2018-Feb-15 18:00N 67°35' E 014°20'5 9.3
2018-Feb-15 17:29N 67°30' E 014°23'5 9.2
2018-Feb-15 17:00N 67°26' E 014°26'4 9.1
2018-Feb-15 16:30N 67°21' E 014°25'4 8.3
2018-Feb-15 16:01N 67°17' E 014°22'1 1.0
2018-Feb-15 15:30N 67°17' E 014°23'0 0.0
2018-Feb-15 15:01N 67°17' E 014°23'0 0.0
2018-Feb-15 14:30N 67°17' E 014°23'0 0.0
2018-Feb-15 14:01N 67°17' E 014°23'0 0.0
2018-Feb-15 13:31N 67°17' E 014°23'0 0.0
2018-Feb-15 13:00N 67°17' E 014°23'0 0.0
2018-Feb-15 12:30N 67°17' E 014°23'0 0.0
2018-Feb-15 12:01N 67°17' E 014°23'0 0.0
2018-Feb-15 11:31N 67°17' E 014°23'0 0.0
2018-Feb-15 11:01N 67°17' E 014°23'0 0.0
2018-Feb-15 10:31N 67°17' E 014°23'0 0.0
2018-Feb-15 10:00N 67°17' E 014°23'0 0.0
2018-Feb-15 09:30N 67°17' E 014°23'0 0.0
2018-Feb-15 09:01N 67°17' E 014°23'0 0.0
2018-Feb-15 08:31N 67°17' E 014°23'0 0.2
2018-Feb-15 08:01N 67°17' E 014°23'0 0.0
2018-Feb-15 07:31N 67°17' E 014°23'0 0.0
2018-Feb-15 07:01N 67°17' E 014°23'0 0.2
2018-Feb-15 06:31N 67°17' E 014°23'0 0.0
2018-Feb-15 06:01N 67°17' E 014°23'0 0.0
2018-Feb-15 05:30N 67°17' E 014°23'0 0.0
2018-Feb-15 05:01N 67°17' E 014°23'0 0.0
2018-Feb-15 04:31N 67°17' E 014°23'0 0.0
2018-Feb-15 04:00N 67°17' E 014°23'0 0.0
2018-Feb-15 03:31N 67°17' E 014°23'0 0.0
2018-Feb-15 03:01N 67°17' E 014°23'0 0.0
2018-Feb-15 02:31N 67°17' E 014°23'0 0.0
2018-Feb-15 02:00N 67°17' E 014°23'0 0.0
2018-Feb-15 01:30N 67°17' E 014°23'0 0.0
2018-Feb-15 01:00N 67°17' E 014°23'0 0.0
2018-Feb-15 00:31N 67°17' E 014°23'0 0.0
2018-Feb-15 00:01N 67°17' E 014°23'0 0.0
2018-Feb-14 23:31N 67°17' E 014°23'0 0.0
2018-Feb-14 23:00N 67°17' E 014°23'0 0.0
2018-Feb-14 22:31N 67°17' E 014°23'0 0.0
2018-Feb-14 22:00N 67°17' E 014°23'0 0.0
2018-Feb-14 21:31N 67°17' E 014°23'0 0.0
2018-Feb-14 21:01N 67°17' E 014°23'0 0.0
2018-Feb-14 20:31N 67°17' E 014°23'0 0.0
2018-Feb-14 20:01N 67°17' E 014°23'0 0.0
2018-Feb-14 19:31N 67°17' E 014°23'0 0.0
2018-Feb-14 19:00N 67°17' E 014°23'0 0.0
2018-Feb-14 18:30N 67°17' E 014°23'0 0.0
2018-Feb-14 18:01N 67°17' E 014°23'0 0.0
2018-Feb-14 17:30N 67°17' E 014°23'4 7.6
2018-Feb-14 17:01N 67°15' E 014°16'5 9.5
2018-Feb-14 16:30N 67°12' E 014°07'5 9.7
2018-Feb-14 16:00N 67°07' E 014°00'5 9.7
2018-Feb-14 15:30N 67°04' E 013°53'6 9.5
2018-Feb-14 14:53N 67°00' E 013°40'4 9.2
2018-Feb-14 14:25N 66°58' E 013°32'2 2.3
2018-Feb-14 13:41N 66°57' E 013°29'0 1.9
2018-Feb-14 13:29N 66°56' E 013°28'1 2.0
2018-Feb-14 12:55N 66°56' E 013°26'0 0.0
2018-Feb-14 12:30N 66°56' E 013°26'0 0.0
2018-Feb-14 12:00N 66°56' E 013°26'0 0.1
2018-Feb-14 10:00N 66°56' E 013°26'0 0.0
2018-Feb-14 09:18N 66°56' E 013°26'0 1.3
2018-Feb-14 09:01N 66°56' E 013°27'1 0.1
2018-Feb-13 18:37N 66°57' E 013°28'24 1.4
2018-Feb-13 01:12N 66°38' E 012°53'2 9.4
2018-Feb-13 01:00N 66°36' E 012°53'7 9.5
2018-Feb-13 00:18N 66°29' E 012°59'4 9.5
2018-Feb-12 23:54N 66°26' E 012°59'4 9.3
2018-Feb-12 23:29N 66°22' E 012°57'25 9.1
2018-Feb-12 20:43N 65°59' E 012°30'49 8.9
2018-Feb-12 15:12N 65°13' E 011°53'3 9.1
2018-Feb-12 14:55N 65°10' E 011°51'4 9.1
2018-Feb-12 14:28N 65°06' E 011°48'4 9.0
2018-Feb-12 14:00N 65°03' E 011°43'4 8.6
2018-Feb-12 13:30N 64°60' E 011°36'4 8.7
2018-Feb-12 13:01N 64°57' E 011°29'5 9.0
2018-Feb-12 12:30N 64°54' E 011°21'4 8.4
2018-Feb-12 12:00N 64°51' E 011°13'7 0.2
2018-Feb-11 00:19N 64°45' E 011°06'3 8.1
2018-Feb-11 00:00N 64°47' E 011°05'4 8.8
2018-Feb-10 23:30N 64°50' E 011°12'4 8.7
2018-Feb-10 23:01N 64°53' E 011°19'4 8.8
2018-Feb-10 22:30N 64°56' E 011°27'4 8.9
2018-Feb-10 22:00N 64°59' E 011°35'5 8.6
2018-Feb-10 21:28N 65°02' E 011°43'4 8.8
2018-Feb-10 20:58N 65°06' E 011°48'7 8.8
2018-Feb-10 20:12N 65°12' E 011°53'61 8.6
2018-Feb-10 13:11N 66°10' E 012°39'2 8.7
2018-Feb-10 13:00N 66°12' E 012°38'4 8.0
2018-Feb-10 12:31N 66°15' E 012°32'4 8.7
2018-Feb-10 12:01N 66°16' E 012°22'4 8.3
2018-Feb-10 11:30N 66°18' E 012°12'4 7.5
2018-Feb-10 11:00N 66°21' E 012°08'4 7.6
2018-Feb-10 10:31N 66°25' E 012°07'3 6.3
2018-Feb-10 10:01N 66°28' E 012°06'2 3.7
2018-Feb-10 09:31N 66°30' E 012°06'0 0.1
2018-Feb-10 09:01N 66°30' E 012°06'0 0.0
2018-Feb-10 08:31N 66°30' E 012°06'0 0.0
2018-Feb-10 08:00N 66°30' E 012°06'0 0.0
2018-Feb-10 07:31N 66°30' E 012°06'0 0.0
2018-Feb-10 07:01N 66°30' E 012°06'0 0.0
2018-Feb-10 06:31N 66°30' E 012°06'0 0.0
2018-Feb-10 06:01N 66°30' E 012°06'0 0.0
2018-Feb-10 05:30N 66°30' E 012°06'0 0.0
2018-Feb-10 05:01N 66°30' E 012°06'0 0.0
2018-Feb-10 04:31N 66°30' E 012°06'0 0.0
2018-Feb-10 04:01N 66°30' E 012°06'0 0.0
2018-Feb-10 03:31N 66°30' E 012°06'0 0.0
2018-Feb-10 03:01N 66°30' E 012°06'0 0.0
2018-Feb-10 02:30N 66°30' E 012°06'0 0.0
2018-Feb-10 02:01N 66°30' E 012°06'0 0.0
2018-Feb-10 01:31N 66°30' E 012°06'0 0.0
2018-Feb-10 01:00N 66°30' E 012°06'0 0.0
2018-Feb-10 00:30N 66°30' E 012°06'0 0.0
2018-Feb-10 00:01N 66°30' E 012°06'0 0.0
2018-Feb-09 23:31N 66°30' E 012°06'0 0.0
2018-Feb-09 23:00N 66°30' E 012°06'0 0.0
2018-Feb-09 22:46N 66°30' E 012°06'0 0.0
2018-Feb-09 22:31N 66°30' E 012°06'0 0.0
2018-Feb-09 22:01N 66°30' E 012°06'0 0.0
2018-Feb-09 21:31N 66°30' E 012°06'0 0.0
2018-Feb-09 21:01N 66°30' E 012°06'0 0.0
2018-Feb-09 19:31N 66°30' E 012°06'0 0.0
2018-Feb-09 19:01N 66°30' E 012°06'0 0.0
2018-Feb-09 18:31N 66°30' E 012°06'0 0.0
2018-Feb-09 18:01N 66°30' E 012°06'0 0.0
2018-Feb-09 17:31N 66°30' E 012°06'0 0.0
2018-Feb-09 16:01N 66°30' E 012°06'0 0.0
2018-Feb-09 15:01N 66°30' E 012°06'0 0.0
2018-Feb-09 14:31N 66°30' E 012°06'0 0.0
2018-Feb-09 14:01N 66°30' E 012°06'0 0.1
2018-Feb-09 13:30N 66°30' E 012°06'0 0.0
2018-Feb-09 13:01N 66°30' E 012°06'0 0.0
2018-Feb-09 12:01N 66°30' E 012°06'0 0.0
2018-Feb-09 11:31N 66°30' E 012°06'0 0.0
2018-Feb-09 11:01N 66°30' E 012°06'0 0.0
2018-Feb-09 09:31N 66°30' E 012°06'0 0.0
2018-Feb-09 08:31N 66°30' E 012°06'0 0.0
2018-Feb-09 08:01N 66°30' E 012°06'0 0.0
2018-Feb-09 05:30N 66°30' E 012°06'0 0.0
2018-Feb-09 04:31N 66°30' E 012°06'0 0.0
2018-Feb-09 03:31N 66°30' E 012°06'0 0.0
2018-Feb-09 00:00N 66°30' E 012°06'13 0.7
2018-Feb-08 06:30N 66°17' E 012°06'  

Dump ship's entire track history